sensor_id;sensor_type;location;lat;lon;timestamp;P1;durP1;ratioP1;P2;durP2;ratioP2
11141;SDS011;5625;50.122;19.864;2024-01-30T00:00:34;49.53;;;32.57;;
11141;SDS011;5625;50.122;19.864;2024-01-30T00:03:03;49.30;;;31.73;;
11141;SDS011;5625;50.122;19.864;2024-01-30T00:05:32;57.50;;;36.37;;
11141;SDS011;5625;50.122;19.864;2024-01-30T00:08:00;56.57;;;36.07;;
11141;SDS011;5625;50.122;19.864;2024-01-30T00:10:28;56.50;;;38.17;;
11141;SDS011;5625;50.122;19.864;2024-01-30T00:12:57;55.33;;;37.47;;
11141;SDS011;5625;50.122;19.864;2024-01-30T00:15:25;57.17;;;37.93;;
11141;SDS011;5625;50.122;19.864;2024-01-30T00:17:55;59.90;;;39.63;;
11141;SDS011;5625;50.122;19.864;2024-01-30T00:20:23;58.43;;;38.30;;
11141;SDS011;5625;50.122;19.864;2024-01-30T00:22:51;59.63;;;38.63;;
11141;SDS011;5625;50.122;19.864;2024-01-30T00:25:19;59.33;;;38.80;;
11141;SDS011;5625;50.122;19.864;2024-01-30T00:27:47;59.30;;;39.20;;
11141;SDS011;5625;50.122;19.864;2024-01-30T00:30:16;61.70;;;39.67;;
11141;SDS011;5625;50.122;19.864;2024-01-30T00:32:44;62.73;;;38.30;;
11141;SDS011;5625;50.122;19.864;2024-01-30T00:35:14;59.40;;;39.40;;
11141;SDS011;5625;50.122;19.864;2024-01-30T00:37:42;62.23;;;38.70;;
11141;SDS011;5625;50.122;19.864;2024-01-30T00:40:10;63.37;;;39.43;;
11141;SDS011;5625;50.122;19.864;2024-01-30T00:42:42;58.10;;;37.83;;
11141;SDS011;5625;50.122;19.864;2024-01-30T00:45:14;58.77;;;36.77;;
11141;SDS011;5625;50.122;19.864;2024-01-30T00:47:42;53.37;;;35.13;;
11141;SDS011;5625;50.122;19.864;2024-01-30T00:50:11;52.20;;;34.80;;
11141;SDS011;5625;50.122;19.864;2024-01-30T00:52:41;52.63;;;34.87;;
11141;SDS011;5625;50.122;19.864;2024-01-30T00:55:11;57.17;;;33.93;;
11141;SDS011;5625;50.122;19.864;2024-01-30T00:57:40;51.50;;;33.30;;
11141;SDS011;5625;50.122;19.864;2024-01-30T01:00:11;49.80;;;32.20;;
11141;SDS011;5625;50.122;19.864;2024-01-30T01:02:43;50.13;;;32.17;;
11141;SDS011;5625;50.122;19.864;2024-01-30T01:05:11;48.80;;;31.80;;
11141;SDS011;5625;50.122;19.864;2024-01-30T01:07:41;47.17;;;31.23;;
11141;SDS011;5625;50.122;19.864;2024-01-30T01:10:10;51.10;;;32.03;;
11141;SDS011;5625;50.122;19.864;2024-01-30T01:12:40;47.77;;;31.87;;
11141;SDS011;5625;50.122;19.864;2024-01-30T01:15:08;48.53;;;31.90;;
11141;SDS011;5625;50.122;19.864;2024-01-30T01:17:37;51.53;;;32.00;;
11141;SDS011;5625;50.122;19.864;2024-01-30T01:20:07;48.80;;;30.10;;
11141;SDS011;5625;50.122;19.864;2024-01-30T01:22:37;48.87;;;30.67;;
11141;SDS011;5625;50.122;19.864;2024-01-30T01:25:08;48.57;;;30.80;;
11141;SDS011;5625;50.122;19.864;2024-01-30T01:27:37;47.40;;;31.40;;
11141;SDS011;5625;50.122;19.864;2024-01-30T01:30:08;48.63;;;31.67;;
11141;SDS011;5625;50.122;19.864;2024-01-30T01:32:40;49.23;;;31.77;;
11141;SDS011;5625;50.122;19.864;2024-01-30T01:35:15;49.23;;;31.63;;
11141;SDS011;5625;50.122;19.864;2024-01-30T01:37:46;49.40;;;31.00;;
11141;SDS011;5625;50.122;19.864;2024-01-30T01:40:22;47.97;;;30.77;;
11141;SDS011;5625;50.122;19.864;2024-01-30T01:42:52;48.10;;;30.23;;
11141;SDS011;5625;50.122;19.864;2024-01-30T01:45:22;45.90;;;30.63;;
11141;SDS011;5625;50.122;19.864;2024-01-30T01:47:50;47.77;;;30.47;;
11141;SDS011;5625;50.122;19.864;2024-01-30T01:50:20;47.17;;;30.37;;
11141;SDS011;5625;50.122;19.864;2024-01-30T01:52:51;55.30;;;33.53;;
11141;SDS011;5625;50.122;19.864;2024-01-30T01:55:20;48.30;;;30.43;;
11141;SDS011;5625;50.122;19.864;2024-01-30T01:57:53;48.80;;;30.80;;
11141;SDS011;5625;50.122;19.864;2024-01-30T02:00:21;53.60;;;32.40;;
11141;SDS011;5625;50.122;19.864;2024-01-30T02:02:51;50.90;;;32.37;;
11141;SDS011;5625;50.122;19.864;2024-01-30T02:05:21;58.27;;;34.13;;
11141;SDS011;5625;50.122;19.864;2024-01-30T02:07:51;55.33;;;35.13;;
11141;SDS011;5625;50.122;19.864;2024-01-30T02:10:20;56.97;;;36.47;;
11141;SDS011;5625;50.122;19.864;2024-01-30T02:12:50;58.33;;;35.87;;
11141;SDS011;5625;50.122;19.864;2024-01-30T02:15:18;59.23;;;37.00;;
11141;SDS011;5625;50.122;19.864;2024-01-30T02:17:46;60.90;;;36.10;;
11141;SDS011;5625;50.122;19.864;2024-01-30T02:20:15;58.10;;;35.27;;
11141;SDS011;5625;50.122;19.864;2024-01-30T02:22:44;57.80;;;35.90;;
11141;SDS011;5625;50.122;19.864;2024-01-30T02:25:13;57.87;;;34.60;;
11141;SDS011;5625;50.122;19.864;2024-01-30T02:27:42;56.87;;;36.17;;
11141;SDS011;5625;50.122;19.864;2024-01-30T02:30:10;51.97;;;34.27;;
11141;SDS011;5625;50.122;19.864;2024-01-30T02:32:39;56.47;;;35.83;;
11141;SDS011;5625;50.122;19.864;2024-01-30T02:35:08;57.73;;;33.17;;
11141;SDS011;5625;50.122;19.864;2024-01-30T02:37:36;53.03;;;33.70;;
11141;SDS011;5625;50.122;19.864;2024-01-30T02:40:06;52.37;;;33.60;;
11141;SDS011;5625;50.122;19.864;2024-01-30T02:42:35;51.50;;;33.40;;
11141;SDS011;5625;50.122;19.864;2024-01-30T02:45:03;52.10;;;33.57;;
11141;SDS011;5625;50.122;19.864;2024-01-30T02:47:32;52.23;;;33.03;;
11141;SDS011;5625;50.122;19.864;2024-01-30T02:50:00;50.57;;;31.43;;
11141;SDS011;5625;50.122;19.864;2024-01-30T02:52:29;51.77;;;31.70;;
11141;SDS011;5625;50.122;19.864;2024-01-30T02:54:57;50.73;;;31.23;;
11141;SDS011;5625;50.122;19.864;2024-01-30T02:57:27;47.80;;;30.97;;
11141;SDS011;5625;50.122;19.864;2024-01-30T02:59:56;48.40;;;32.50;;
11141;SDS011;5625;50.122;19.864;2024-01-30T03:02:24;51.07;;;32.30;;
11141;SDS011;5625;50.122;19.864;2024-01-30T03:04:52;49.43;;;32.03;;
11141;SDS011;5625;50.122;19.864;2024-01-30T03:07:20;49.03;;;31.80;;
11141;SDS011;5625;50.122;19.864;2024-01-30T03:09:49;47.67;;;31.13;;
11141;SDS011;5625;50.122;19.864;2024-01-30T03:12:17;48.90;;;32.30;;
11141;SDS011;5625;50.122;19.864;2024-01-30T03:14:46;46.77;;;30.60;;
11141;SDS011;5625;50.122;19.864;2024-01-30T03:17:15;46.70;;;29.30;;
11141;SDS011;5625;50.122;19.864;2024-01-30T03:19:44;46.47;;;29.97;;
11141;SDS011;5625;50.122;19.864;2024-01-30T03:22:12;48.27;;;30.93;;
11141;SDS011;5625;50.122;19.864;2024-01-30T03:24:40;45.63;;;28.43;;
11141;SDS011;5625;50.122;19.864;2024-01-30T03:27:08;46.80;;;30.27;;
11141;SDS011;5625;50.122;19.864;2024-01-30T03:29:37;45.67;;;28.20;;
11141;SDS011;5625;50.122;19.864;2024-01-30T03:32:06;49.37;;;30.43;;
11141;SDS011;5625;50.122;19.864;2024-01-30T03:34:34;48.47;;;31.17;;
11141;SDS011;5625;50.122;19.864;2024-01-30T03:37:03;50.13;;;31.03;;
11141;SDS011;5625;50.122;19.864;2024-01-30T03:39:31;50.27;;;30.00;;
11141;SDS011;5625;50.122;19.864;2024-01-30T03:41:59;45.33;;;29.17;;
11141;SDS011;5625;50.122;19.864;2024-01-30T03:44:27;47.47;;;31.10;;
11141;SDS011;5625;50.122;19.864;2024-01-30T03:46:55;44.27;;;29.87;;
11141;SDS011;5625;50.122;19.864;2024-01-30T03:49:25;46.20;;;29.80;;
11141;SDS011;5625;50.122;19.864;2024-01-30T03:51:53;47.60;;;31.27;;
11141;SDS011;5625;50.122;19.864;2024-01-30T03:54:22;51.83;;;31.63;;
11141;SDS011;5625;50.122;19.864;2024-01-30T03:56:50;46.80;;;29.43;;
11141;SDS011;5625;50.122;19.864;2024-01-30T03:59:18;45.57;;;29.70;;
11141;SDS011;5625;50.122;19.864;2024-01-30T04:01:55;44.57;;;29.70;;
11141;SDS011;5625;50.122;19.864;2024-01-30T04:04:25;44.00;;;28.33;;
11141;SDS011;5625;50.122;19.864;2024-01-30T04:06:53;46.57;;;30.60;;
11141;SDS011;5625;50.122;19.864;2024-01-30T04:09:22;47.63;;;28.63;;
11141;SDS011;5625;50.122;19.864;2024-01-30T04:11:50;44.17;;;28.77;;
11141;SDS011;5625;50.122;19.864;2024-01-30T04:14:18;46.77;;;30.60;;
11141;SDS011;5625;50.122;19.864;2024-01-30T04:16:46;46.83;;;29.43;;
11141;SDS011;5625;50.122;19.864;2024-01-30T04:19:16;45.60;;;28.70;;
11141;SDS011;5625;50.122;19.864;2024-01-30T04:21:46;46.97;;;31.17;;
11141;SDS011;5625;50.122;19.864;2024-01-30T04:24:14;43.30;;;30.07;;
11141;SDS011;5625;50.122;19.864;2024-01-30T04:26:44;50.20;;;31.10;;
11141;SDS011;5625;50.122;19.864;2024-01-30T04:29:15;50.93;;;31.40;;
11141;SDS011;5625;50.122;19.864;2024-01-30T04:31:43;52.27;;;32.10;;
11141;SDS011;5625;50.122;19.864;2024-01-30T04:34:12;53.83;;;33.03;;
11141;SDS011;5625;50.122;19.864;2024-01-30T04:36:40;58.40;;;34.40;;
11141;SDS011;5625;50.122;19.864;2024-01-30T04:39:14;56.37;;;37.17;;
11141;SDS011;5625;50.122;19.864;2024-01-30T04:41:42;60.60;;;38.27;;
11141;SDS011;5625;50.122;19.864;2024-01-30T04:44:10;62.83;;;37.80;;
11141;SDS011;5625;50.122;19.864;2024-01-30T04:46:39;69.13;;;42.10;;
11141;SDS011;5625;50.122;19.864;2024-01-30T04:49:07;67.10;;;41.60;;
11141;SDS011;5625;50.122;19.864;2024-01-30T04:51:35;64.70;;;40.80;;
11141;SDS011;5625;50.122;19.864;2024-01-30T04:54:03;69.07;;;41.10;;
11141;SDS011;5625;50.122;19.864;2024-01-30T04:56:33;68.63;;;40.00;;
11141;SDS011;5625;50.122;19.864;2024-01-30T04:59:02;59.40;;;37.00;;
11141;SDS011;5625;50.122;19.864;2024-01-30T05:01:30;65.13;;;37.47;;
11141;SDS011;5625;50.122;19.864;2024-01-30T05:03:58;61.40;;;36.20;;
11141;SDS011;5625;50.122;19.864;2024-01-30T05:06:27;58.73;;;34.83;;
11141;SDS011;5625;50.122;19.864;2024-01-30T05:08:56;53.17;;;34.20;;
11141;SDS011;5625;50.122;19.864;2024-01-30T05:11:24;53.30;;;32.73;;
11141;SDS011;5625;50.122;19.864;2024-01-30T05:13:54;52.50;;;31.13;;
11141;SDS011;5625;50.122;19.864;2024-01-30T05:16:22;52.00;;;31.83;;
11141;SDS011;5625;50.122;19.864;2024-01-30T05:18:50;49.00;;;30.43;;
11141;SDS011;5625;50.122;19.864;2024-01-30T05:21:18;52.10;;;29.90;;
11141;SDS011;5625;50.122;19.864;2024-01-30T05:23:47;51.60;;;30.37;;
11141;SDS011;5625;50.122;19.864;2024-01-30T05:26:15;54.00;;;31.00;;
11141;SDS011;5625;50.122;19.864;2024-01-30T05:28:44;48.10;;;30.20;;
11141;SDS011;5625;50.122;19.864;2024-01-30T05:31:13;47.60;;;29.93;;
11141;SDS011;5625;50.122;19.864;2024-01-30T05:33:42;49.83;;;30.30;;
11141;SDS011;5625;50.122;19.864;2024-01-30T05:36:11;49.13;;;30.13;;
11141;SDS011;5625;50.122;19.864;2024-01-30T05:38:40;47.87;;;29.37;;
11141;SDS011;5625;50.122;19.864;2024-01-30T05:41:08;45.77;;;29.10;;
11141;SDS011;5625;50.122;19.864;2024-01-30T05:43:37;51.47;;;30.43;;
11141;SDS011;5625;50.122;19.864;2024-01-30T05:46:05;47.70;;;29.23;;
11141;SDS011;5625;50.122;19.864;2024-01-30T05:48:35;48.23;;;30.63;;
11141;SDS011;5625;50.122;19.864;2024-01-30T05:51:04;48.30;;;28.43;;
11141;SDS011;5625;50.122;19.864;2024-01-30T05:53:32;47.07;;;29.57;;
11141;SDS011;5625;50.122;19.864;2024-01-30T05:56:01;52.27;;;30.70;;
11141;SDS011;5625;50.122;19.864;2024-01-30T05:58:30;48.23;;;30.20;;
11141;SDS011;5625;50.122;19.864;2024-01-30T06:00:58;48.10;;;30.00;;
11141;SDS011;5625;50.122;19.864;2024-01-30T06:03:27;48.10;;;29.30;;
11141;SDS011;5625;50.122;19.864;2024-01-30T06:05:56;46.87;;;28.37;;
11141;SDS011;5625;50.122;19.864;2024-01-30T06:08:24;48.23;;;27.90;;
11141;SDS011;5625;50.122;19.864;2024-01-30T06:10:53;44.63;;;27.87;;
11141;SDS011;5625;50.122;19.864;2024-01-30T06:13:23;43.57;;;27.87;;
11141;SDS011;5625;50.122;19.864;2024-01-30T06:15:51;41.90;;;27.30;;
11141;SDS011;5625;50.122;19.864;2024-01-30T06:18:20;45.90;;;26.90;;
11141;SDS011;5625;50.122;19.864;2024-01-30T06:20:48;44.47;;;25.90;;
11141;SDS011;5625;50.122;19.864;2024-01-30T06:23:17;44.77;;;27.70;;
11141;SDS011;5625;50.122;19.864;2024-01-30T06:25:46;47.47;;;29.50;;
11141;SDS011;5625;50.122;19.864;2024-01-30T06:28:14;52.37;;;30.10;;
11141;SDS011;5625;50.122;19.864;2024-01-30T06:30:42;49.37;;;29.70;;
11141;SDS011;5625;50.122;19.864;2024-01-30T06:33:11;61.80;;;38.00;;
11141;SDS011;5625;50.122;19.864;2024-01-30T06:35:41;56.67;;;33.23;;
11141;SDS011;5625;50.122;19.864;2024-01-30T06:38:10;68.63;;;41.30;;
11141;SDS011;5625;50.122;19.864;2024-01-30T06:40:41;65.80;;;38.57;;
11141;SDS011;5625;50.122;19.864;2024-01-30T06:43:09;64.60;;;40.83;;
11141;SDS011;5625;50.122;19.864;2024-01-30T06:45:37;67.97;;;42.90;;
11141;SDS011;5625;50.122;19.864;2024-01-30T06:48:07;66.80;;;44.03;;
11141;SDS011;5625;50.122;19.864;2024-01-30T06:50:35;72.63;;;44.87;;
11141;SDS011;5625;50.122;19.864;2024-01-30T06:53:04;72.63;;;43.73;;
11141;SDS011;5625;50.122;19.864;2024-01-30T06:55:32;79.37;;;46.53;;
11141;SDS011;5625;50.122;19.864;2024-01-30T06:58:02;81.83;;;48.43;;
11141;SDS011;5625;50.122;19.864;2024-01-30T07:00:30;90.27;;;51.67;;
11141;SDS011;5625;50.122;19.864;2024-01-30T07:02:59;80.93;;;50.40;;
11141;SDS011;5625;50.122;19.864;2024-01-30T07:05:27;77.47;;;48.50;;
11141;SDS011;5625;50.122;19.864;2024-01-30T07:07:55;81.43;;;48.77;;
11141;SDS011;5625;50.122;19.864;2024-01-30T07:10:24;78.80;;;49.87;;
11141;SDS011;5625;50.122;19.864;2024-01-30T07:12:53;78.63;;;48.53;;
11141;SDS011;5625;50.122;19.864;2024-01-30T07:15:22;77.80;;;49.70;;
11141;SDS011;5625;50.122;19.864;2024-01-30T07:17:54;81.47;;;47.87;;
11141;SDS011;5625;50.122;19.864;2024-01-30T07:20:23;78.23;;;49.43;;
11141;SDS011;5625;50.122;19.864;2024-01-30T07:22:51;87.93;;;51.30;;
11141;SDS011;5625;50.122;19.864;2024-01-30T07:25:20;83.80;;;49.87;;
11141;SDS011;5625;50.122;19.864;2024-01-30T07:27:48;90.03;;;55.87;;
11141;SDS011;5625;50.122;19.864;2024-01-30T07:30:16;94.53;;;58.97;;
11141;SDS011;5625;50.122;19.864;2024-01-30T07:32:46;104.63;;;67.67;;
11141;SDS011;5625;50.122;19.864;2024-01-30T07:35:14;110.13;;;69.40;;
11141;SDS011;5625;50.122;19.864;2024-01-30T07:37:43;97.00;;;58.30;;
11141;SDS011;5625;50.122;19.864;2024-01-30T07:40:11;92.53;;;56.07;;
11141;SDS011;5625;50.122;19.864;2024-01-30T07:42:40;85.73;;;53.47;;
11141;SDS011;5625;50.122;19.864;2024-01-30T07:45:09;88.37;;;54.27;;
11141;SDS011;5625;50.122;19.864;2024-01-30T07:47:37;85.27;;;53.13;;
11141;SDS011;5625;50.122;19.864;2024-01-30T07:50:07;82.83;;;51.00;;
11141;SDS011;5625;50.122;19.864;2024-01-30T07:52:36;76.23;;;47.30;;
11141;SDS011;5625;50.122;19.864;2024-01-30T07:55:05;339.73;;;60.47;;
11141;SDS011;5625;50.122;19.864;2024-01-30T07:57:34;63.37;;;42.97;;
11141;SDS011;5625;50.122;19.864;2024-01-30T08:00:03;54.07;;;36.80;;
11141;SDS011;5625;50.122;19.864;2024-01-30T08:02:33;47.40;;;31.73;;
11141;SDS011;5625;50.122;19.864;2024-01-30T08:05:02;47.23;;;29.93;;
11141;SDS011;5625;50.122;19.864;2024-01-30T08:07:32;43.77;;;29.83;;
11141;SDS011;5625;50.122;19.864;2024-01-30T08:10:00;45.63;;;29.67;;
11141;SDS011;5625;50.122;19.864;2024-01-30T08:12:28;48.03;;;30.97;;
11141;SDS011;5625;50.122;19.864;2024-01-30T08:14:56;43.30;;;30.23;;
11141;SDS011;5625;50.122;19.864;2024-01-30T08:17:25;49.07;;;31.73;;
11141;SDS011;5625;50.122;19.864;2024-01-30T08:19:53;44.47;;;31.90;;
11141;SDS011;5625;50.122;19.864;2024-01-30T08:22:21;48.10;;;34.17;;
11141;SDS011;5625;50.122;19.864;2024-01-30T08:24:51;46.07;;;32.40;;
11141;SDS011;5625;50.122;19.864;2024-01-30T08:27:19;45.23;;;32.83;;
11141;SDS011;5625;50.122;19.864;2024-01-30T08:29:47;42.93;;;31.67;;
11141;SDS011;5625;50.122;19.864;2024-01-30T08:32:16;41.73;;;30.30;;
11141;SDS011;5625;50.122;19.864;2024-01-30T08:34:44;51.63;;;32.67;;
11141;SDS011;5625;50.122;19.864;2024-01-30T08:37:13;45.23;;;30.03;;
11141;SDS011;5625;50.122;19.864;2024-01-30T08:39:43;39.43;;;28.87;;
11141;SDS011;5625;50.122;19.864;2024-01-30T08:42:12;42.57;;;28.73;;
11141;SDS011;5625;50.122;19.864;2024-01-30T08:44:41;41.80;;;29.03;;
11141;SDS011;5625;50.122;19.864;2024-01-30T08:47:09;40.77;;;28.50;;
11141;SDS011;5625;50.122;19.864;2024-01-30T08:49:37;38.67;;;26.80;;
11141;SDS011;5625;50.122;19.864;2024-01-30T08:52:09;40.83;;;27.30;;
11141;SDS011;5625;50.122;19.864;2024-01-30T08:54:39;35.53;;;26.77;;
11141;SDS011;5625;50.122;19.864;2024-01-30T08:57:08;36.80;;;26.80;;
11141;SDS011;5625;50.122;19.864;2024-01-30T08:59:37;38.73;;;27.63;;
11141;SDS011;5625;50.122;19.864;2024-01-30T09:02:06;37.23;;;29.00;;
11141;SDS011;5625;50.122;19.864;2024-01-30T09:04:39;39.53;;;26.90;;
11141;SDS011;5625;50.122;19.864;2024-01-30T09:07:08;36.73;;;27.57;;
11141;SDS011;5625;50.122;19.864;2024-01-30T09:09:38;37.67;;;29.20;;
11141;SDS011;5625;50.122;19.864;2024-01-30T09:12:07;38.43;;;29.73;;
11141;SDS011;5625;50.122;19.864;2024-01-30T09:14:38;37.90;;;29.97;;
11141;SDS011;5625;50.122;19.864;2024-01-30T09:17:07;44.77;;;30.43;;
11141;SDS011;5625;50.122;19.864;2024-01-30T09:19:36;37.73;;;29.77;;
11141;SDS011;5625;50.122;19.864;2024-01-30T09:22:04;38.57;;;29.63;;
11141;SDS011;5625;50.122;19.864;2024-01-30T09:24:33;38.73;;;30.07;;
11141;SDS011;5625;50.122;19.864;2024-01-30T09:27:01;36.30;;;28.30;;
11141;SDS011;5625;50.122;19.864;2024-01-30T09:29:29;35.37;;;28.23;;
11141;SDS011;5625;50.122;19.864;2024-01-30T09:32:00;33.57;;;28.23;;
11141;SDS011;5625;50.122;19.864;2024-01-30T09:34:29;35.67;;;27.47;;
11141;SDS011;5625;50.122;19.864;2024-01-30T09:36:58;34.83;;;27.27;;
11141;SDS011;5625;50.122;19.864;2024-01-30T09:39:26;36.30;;;27.77;;
11141;SDS011;5625;50.122;19.864;2024-01-30T09:41:55;34.50;;;28.50;;
11141;SDS011;5625;50.122;19.864;2024-01-30T09:44:30;35.10;;;27.40;;
11141;SDS011;5625;50.122;19.864;2024-01-30T09:46:59;33.70;;;27.47;;
11141;SDS011;5625;50.122;19.864;2024-01-30T09:49:31;34.67;;;27.93;;
11141;SDS011;5625;50.122;19.864;2024-01-30T09:52:00;35.97;;;26.57;;
11141;SDS011;5625;50.122;19.864;2024-01-30T09:54:30;32.43;;;25.47;;
11141;SDS011;5625;50.122;19.864;2024-01-30T09:57:02;31.40;;;24.60;;
11141;SDS011;5625;50.122;19.864;2024-01-30T09:59:31;31.17;;;24.90;;
11141;SDS011;5625;50.122;19.864;2024-01-30T10:02:01;31.07;;;23.47;;
11141;SDS011;5625;50.122;19.864;2024-01-30T10:04:30;29.67;;;22.90;;
11141;SDS011;5625;50.122;19.864;2024-01-30T10:07:00;27.47;;;22.00;;
11141;SDS011;5625;50.122;19.864;2024-01-30T10:09:31;29.23;;;22.23;;
11141;SDS011;5625;50.122;19.864;2024-01-30T10:12:00;24.20;;;20.93;;
11141;SDS011;5625;50.122;19.864;2024-01-30T10:14:30;25.77;;;20.23;;
11141;SDS011;5625;50.122;19.864;2024-01-30T10:16:58;29.87;;;21.27;;
11141;SDS011;5625;50.122;19.864;2024-01-30T10:19:28;25.90;;;21.27;;
11141;SDS011;5625;50.122;19.864;2024-01-30T10:21:56;30.13;;;20.63;;
11141;SDS011;5625;50.122;19.864;2024-01-30T10:24:24;27.57;;;20.90;;
11141;SDS011;5625;50.122;19.864;2024-01-30T10:26:53;24.77;;;19.90;;
11141;SDS011;5625;50.122;19.864;2024-01-30T10:29:24;24.57;;;19.37;;
11141;SDS011;5625;50.122;19.864;2024-01-30T10:31:58;23.53;;;19.40;;
11141;SDS011;5625;50.122;19.864;2024-01-30T10:34:28;24.70;;;19.47;;
11141;SDS011;5625;50.122;19.864;2024-01-30T10:36:59;25.20;;;19.53;;
11141;SDS011;5625;50.122;19.864;2024-01-30T10:39:39;23.07;;;19.30;;
11141;SDS011;5625;50.122;19.864;2024-01-30T10:42:10;24.90;;;20.90;;
11141;SDS011;5625;50.122;19.864;2024-01-30T10:44:43;26.37;;;20.40;;
11141;SDS011;5625;50.122;19.864;2024-01-30T10:47:17;28.20;;;22.10;;
11141;SDS011;5625;50.122;19.864;2024-01-30T10:49:51;26.47;;;21.60;;
11141;SDS011;5625;50.122;19.864;2024-01-30T10:52:20;28.17;;;21.27;;
11141;SDS011;5625;50.122;19.864;2024-01-30T10:54:50;29.57;;;22.30;;
11141;SDS011;5625;50.122;19.864;2024-01-30T10:57:19;30.73;;;22.53;;
11141;SDS011;5625;50.122;19.864;2024-01-30T10:59:50;26.60;;;22.27;;
11141;SDS011;5625;50.122;19.864;2024-01-30T11:02:20;28.33;;;22.47;;
11141;SDS011;5625;50.122;19.864;2024-01-30T11:04:57;27.77;;;21.27;;
11141;SDS011;5625;50.122;19.864;2024-01-30T11:07:29;27.57;;;21.03;;
11141;SDS011;5625;50.122;19.864;2024-01-30T11:10:02;26.00;;;19.63;;
11141;SDS011;5625;50.122;19.864;2024-01-30T11:12:31;23.37;;;18.50;;
11141;SDS011;5625;50.122;19.864;2024-01-30T11:15:01;23.80;;;17.27;;
11141;SDS011;5625;50.122;19.864;2024-01-30T11:17:41;18.83;;;16.20;;
11141;SDS011;5625;50.122;19.864;2024-01-30T11:20:12;20.57;;;15.83;;
11141;SDS011;5625;50.122;19.864;2024-01-30T11:22:44;18.37;;;14.43;;
11141;SDS011;5625;50.122;19.864;2024-01-30T11:25:16;19.67;;;15.30;;
11141;SDS011;5625;50.122;19.864;2024-01-30T11:27:45;20.80;;;16.27;;
11141;SDS011;5625;50.122;19.864;2024-01-30T11:30:20;20.37;;;16.33;;
11141;SDS011;5625;50.122;19.864;2024-01-30T11:33:02;21.20;;;16.67;;
11141;SDS011;5625;50.122;19.864;2024-01-30T11:35:36;24.73;;;17.57;;
11141;SDS011;5625;50.122;19.864;2024-01-30T11:38:06;23.90;;;16.83;;
11141;SDS011;5625;50.122;19.864;2024-01-30T11:40:36;25.60;;;18.43;;
11141;SDS011;5625;50.122;19.864;2024-01-30T11:43:06;23.60;;;18.40;;
11141;SDS011;5625;50.122;19.864;2024-01-30T11:45:35;24.60;;;18.80;;
11141;SDS011;5625;50.122;19.864;2024-01-30T11:48:06;27.37;;;19.53;;
11141;SDS011;5625;50.122;19.864;2024-01-30T11:50:39;24.30;;;19.30;;
11141;SDS011;5625;50.122;19.864;2024-01-30T11:53:08;26.03;;;19.73;;
11141;SDS011;5625;50.122;19.864;2024-01-30T11:55:37;28.63;;;19.43;;
11141;SDS011;5625;50.122;19.864;2024-01-30T11:58:05;26.50;;;19.27;;
11141;SDS011;5625;50.122;19.864;2024-01-30T12:00:34;28.27;;;18.97;;
11141;SDS011;5625;50.122;19.864;2024-01-30T12:03:02;27.17;;;19.30;;
11141;SDS011;5625;50.122;19.864;2024-01-30T12:05:33;29.67;;;20.37;;
11141;SDS011;5625;50.122;19.864;2024-01-30T12:08:04;27.70;;;18.90;;
11141;SDS011;5625;50.122;19.864;2024-01-30T12:10:33;24.50;;;19.23;;
11141;SDS011;5625;50.122;19.864;2024-01-30T12:13:01;24.50;;;18.93;;
11141;SDS011;5625;50.122;19.864;2024-01-30T12:15:30;26.87;;;19.73;;
11141;SDS011;5625;50.122;19.864;2024-01-30T12:18:06;27.47;;;20.17;;
11141;SDS011;5625;50.122;19.864;2024-01-30T12:20:35;26.87;;;19.70;;
11141;SDS011;5625;50.122;19.864;2024-01-30T12:23:05;30.07;;;19.77;;
11141;SDS011;5625;50.122;19.864;2024-01-30T12:25:33;26.97;;;19.27;;
11141;SDS011;5625;50.122;19.864;2024-01-30T12:28:01;27.83;;;18.67;;
11141;SDS011;5625;50.122;19.864;2024-01-30T12:30:30;26.03;;;18.07;;
11141;SDS011;5625;50.122;19.864;2024-01-30T12:32:58;23.17;;;18.47;;
11141;SDS011;5625;50.122;19.864;2024-01-30T12:35:28;26.37;;;19.37;;
11141;SDS011;5625;50.122;19.864;2024-01-30T12:37:59;23.07;;;18.37;;
11141;SDS011;5625;50.122;19.864;2024-01-30T12:40:29;27.10;;;18.97;;
11141;SDS011;5625;50.122;19.864;2024-01-30T12:42:57;26.00;;;17.93;;
11141;SDS011;5625;50.122;19.864;2024-01-30T12:45:25;26.07;;;18.90;;
11141;SDS011;5625;50.122;19.864;2024-01-30T12:47:56;30.10;;;20.10;;
11141;SDS011;5625;50.122;19.864;2024-01-30T12:50:25;26.47;;;18.30;;
11141;SDS011;5625;50.122;19.864;2024-01-30T12:52:53;26.63;;;19.67;;
11141;SDS011;5625;50.122;19.864;2024-01-30T12:55:22;26.63;;;19.10;;
11141;SDS011;5625;50.122;19.864;2024-01-30T12:57:52;25.50;;;19.00;;
11141;SDS011;5625;50.122;19.864;2024-01-30T13:00:20;25.87;;;18.17;;
11141;SDS011;5625;50.122;19.864;2024-01-30T13:02:49;25.37;;;18.73;;
11141;SDS011;5625;50.122;19.864;2024-01-30T13:05:18;25.10;;;18.50;;
11141;SDS011;5625;50.122;19.864;2024-01-30T13:07:46;24.33;;;18.17;;
11141;SDS011;5625;50.122;19.864;2024-01-30T13:10:14;26.77;;;19.13;;
11141;SDS011;5625;50.122;19.864;2024-01-30T13:12:43;26.73;;;19.30;;
11141;SDS011;5625;50.122;19.864;2024-01-30T13:15:14;25.53;;;17.93;;
11141;SDS011;5625;50.122;19.864;2024-01-30T13:17:42;26.83;;;18.10;;
11141;SDS011;5625;50.122;19.864;2024-01-30T13:20:12;24.93;;;17.37;;
11141;SDS011;5625;50.122;19.864;2024-01-30T13:22:46;23.93;;;17.10;;
11141;SDS011;5625;50.122;19.864;2024-01-30T13:25:20;28.93;;;18.83;;
11141;SDS011;5625;50.122;19.864;2024-01-30T13:27:48;27.30;;;18.97;;
11141;SDS011;5625;50.122;19.864;2024-01-30T13:30:17;24.20;;;16.87;;
11141;SDS011;5625;50.122;19.864;2024-01-30T13:32:46;20.47;;;15.03;;
11141;SDS011;5625;50.122;19.864;2024-01-30T13:35:14;20.83;;;14.23;;
11141;SDS011;5625;50.122;19.864;2024-01-30T13:37:43;16.87;;;13.93;;
11141;SDS011;5625;50.122;19.864;2024-01-30T13:40:14;23.17;;;14.30;;
11141;SDS011;5625;50.122;19.864;2024-01-30T13:42:43;20.33;;;13.43;;
11141;SDS011;5625;50.122;19.864;2024-01-30T13:45:11;18.17;;;13.17;;
11141;SDS011;5625;50.122;19.864;2024-01-30T13:47:41;19.40;;;13.83;;
11141;SDS011;5625;50.122;19.864;2024-01-30T13:50:09;18.90;;;12.67;;
11141;SDS011;5625;50.122;19.864;2024-01-30T13:52:41;18.00;;;11.77;;
11141;SDS011;5625;50.122;19.864;2024-01-30T13:55:11;18.10;;;12.83;;
11141;SDS011;5625;50.122;19.864;2024-01-30T13:57:40;20.40;;;12.73;;
11141;SDS011;5625;50.122;19.864;2024-01-30T14:00:08;20.83;;;13.60;;
11141;SDS011;5625;50.122;19.864;2024-01-30T14:02:40;19.77;;;13.47;;
11141;SDS011;5625;50.122;19.864;2024-01-30T14:05:13;21.13;;;13.23;;
11141;SDS011;5625;50.122;19.864;2024-01-30T14:07:47;20.57;;;13.50;;
11141;SDS011;5625;50.122;19.864;2024-01-30T14:10:16;22.97;;;14.47;;
11141;SDS011;5625;50.122;19.864;2024-01-30T14:12:44;22.77;;;13.90;;
11141;SDS011;5625;50.122;19.864;2024-01-30T14:15:14;19.97;;;13.73;;
11141;SDS011;5625;50.122;19.864;2024-01-30T14:17:55;20.00;;;14.00;;
11141;SDS011;5625;50.122;19.864;2024-01-30T14:20:25;21.17;;;14.27;;
11141;SDS011;5625;50.122;19.864;2024-01-30T14:22:53;23.60;;;13.17;;
11141;SDS011;5625;50.122;19.864;2024-01-30T14:25:23;18.93;;;13.70;;
11141;SDS011;5625;50.122;19.864;2024-01-30T14:27:51;17.90;;;13.30;;
11141;SDS011;5625;50.122;19.864;2024-01-30T14:30:21;20.83;;;14.20;;
11141;SDS011;5625;50.122;19.864;2024-01-30T14:32:49;21.30;;;13.87;;